Bee House, Texas
Current Conditions -  °F | °C
As of 9:35 PM on Monday 20 Oct 2014 (Local Time) from KMNZ Reporting Station
Clear Clear  
Wind Chill: 68°   Ceiling: Unl
Heat Index: 68°   Visibility: 10mi
Dew Point: 57°   Wind: 7mph
Humidity: 67%   Direction: 150°SSE
Pressure: 30.07"   Gusts: NA
Location:  31.463°N, 98.243°W
Report Text: KMNZ 210235Z AUTO 15006KT 10SM CLR 20/14 A3007 RMK AO2 T02000138
Loading
Personal Weather Stations






























Interactive Weather Map
Tropical Storm Tracking
New forecast layout! Learn more

10-Day Weather Forecast

Advertisements
Track Severe Weather on mobile